Time;durP1;ratioP1;P1;durP2;ratioP2;P2;SDS_P1;SDS_P2;PMS_P1;PMS_P2;Temp;Humidity;BMP_temperature;BMP_pressure;BME280_temperature;BME280_humidity;BME280_pressure;Samples;Min_cycle;Max_cycle;Signal;HPM_P1;HPM_P2
2020/12/24 00:07:49;;;;;;;0.75;0.30;;;12.20;73.40;;;;;;20764986;28;20101;-74
2020/12/24 00:17:50;;;;;;;0.22;0.22;;;12.20;73.40;;;;;;20770024;28;20037;-79
2020/12/24 00:27:50;;;;;;;0.40;0.40;;;12.20;73.50;;;;;;20789222;28;20044;-75
2020/12/24 00:37:52;;;;;;;1.20;0.52;;;12.20;73.50;;;;;;20750057;28;20396;-75
2020/12/24 00:47:52;;;;;;;0.40;0.40;;;12.20;73.60;;;;;;20766434;28;20029;-75
2020/12/24 00:57:53;;;;;;;0.50;0.40;;;12.20;73.50;;;;;;20765767;28;20048;-75
2020/12/24 01:07:54;;;;;;;0.73;0.38;;;12.20;73.50;;;;;;20772953;28;20069;-76
2020/12/24 01:17:54;;;;;;;0.98;0.50;;;12.20;73.50;;;;;;20783893;28;20041;-75
2020/12/24 01:27:55;;;;;;;1.48;0.50;;;12.20;73.50;;;;;;20787537;28;20021;-75
2020/12/24 01:37:56;;;;;;;1.30;0.30;;;12.20;73.50;;;;;;20768280;28;20057;-75
2020/12/24 01:47:57;;;;;;;0.40;0.20;;;12.20;73.50;;;;;;20752336;28;20053;-76
2020/12/24 01:57:58;;;;;;;1.05;0.50;;;12.20;73.60;;;;;;20741612;28;20026;-75
2020/12/24 02:07:59;;;;;;;0.05;0.05;;;12.20;73.70;;;;;;20756679;28;20107;-76
2020/12/24 02:17:59;;;;;;;0.35;0.30;;;12.20;73.90;;;;;;20726808;28;20062;-75
2020/12/24 02:28:00;;;;;;;3.50;0.40;;;12.20;74.00;;;;;;20771176;28;20037;-76
2020/12/24 02:38:01;;;;;;;0.30;0.28;;;12.20;74.00;;;;;;20748590;28;20481;-76
2020/12/24 02:48:02;;;;;;;0.43;0.30;;;12.20;74.10;;;;;;20754429;28;20061;-80
2020/12/24 02:58:04;;;;;;;1.75;0.40;;;12.20;74.20;;;;;;20743696;28;20067;-77
2020/12/24 03:08:05;;;;;;;0.30;0.25;;;12.20;74.30;;;;;;20743207;28;20041;-77
2020/12/24 03:18:06;;;;;;;0.28;0.20;;;12.10;74.20;;;;;;20756835;28;20045;-76
2020/12/24 03:28:06;;;;;;;0.47;0.25;;;12.20;74.30;;;;;;20759388;28;20587;-75
2020/12/24 03:38:07;;;;;;;0.30;0.30;;;12.10;74.10;;;;;;20723704;28;20164;-75
2020/12/24 03:48:08;;;;;;;0.68;0.63;;;12.20;74.10;;;;;;20756246;28;20049;-78
2020/12/24 03:58:09;;;;;;;0.30;0.20;;;12.10;73.90;;;;;;20731412;28;20034;-75
2020/12/24 04:08:09;;;;;;;0.57;0.20;;;12.10;73.90;;;;;;20740076;28;20567;-76
2020/12/24 04:18:10;;;;;;;4.05;0.28;;;12.10;73.80;;;;;;20759418;28;20106;-77
2020/12/24 04:28:11;;;;;;;2.13;0.60;;;12.10;73.80;;;;;;20723304;28;20137;-77
2020/12/24 04:38:13;;;;;;;0.20;0.20;;;12.10;73.60;;;;;;20766488;28;20096;-76
2020/12/24 04:48:16;;;;;;;0.75;0.47;;;12.10;73.60;;;;;;20715428;28;20385;-76
2020/12/24 04:58:16;;;;;;;0.65;0.15;;;12.10;73.50;;;;;;20720621;28;20373;-77
2020/12/24 05:08:18;;;;;;;0.43;0.20;;;12.10;73.40;;;;;;20746539;28;20037;-77
2020/12/24 05:18:22;;;;;;;0.20;0.20;;;12.10;73.50;;;;;;20780727;28;20037;-77
2020/12/24 05:28:24;;;;;;;0.10;0.10;;;12.20;73.50;;;;;;20745703;28;20037;-78
2020/12/24 05:38:32;;;;;;;0.38;0.22;;;12.40;73.20;;;;;;20757517;28;20037;-77
2020/12/24 05:48:33;;;;;;;0.10;0.10;;;12.60;72.50;;;;;;20779230;28;20394;-78
2020/12/24 05:58:33;;;;;;;0.50;0.32;;;12.70;71.80;;;;;;20740389;28;20132;-79
2020/12/24 06:08:34;;;;;;;0.10;0.10;;;12.80;71.30;;;;;;20771916;28;20061;-76
2020/12/24 06:18:40;;;;;;;0.20;0.20;;;12.80;70.50;;;;;;20783693;28;20044;-78
2020/12/24 06:28:41;;;;;;;1.25;0.32;;;12.70;70.40;;;;;;20746116;28;20042;-77
2020/12/24 06:38:47;;;;;;;0.22;0.22;;;12.60;70.50;;;;;;20762773;28;20476;-76
2020/12/24 06:48:58;;;;;;;0.15;0.15;;;12.50;70.60;;;;;;20778041;28;20048;-76
2020/12/24 06:59:00;;;;;;;0.90;0.55;;;12.40;70.90;;;;;;20748088;28;20033;-78
2020/12/24 07:09:02;;;;;;;0.43;0.32;;;12.40;71.10;;;;;;20764270;28;20049;-78
2020/12/24 07:19:04;;;;;;;0.10;0.10;;;12.20;71.20;;;;;;20779550;28;20037;-77
2020/12/24 07:29:05;;;;;;;0.10;0.10;;;12.20;71.40;;;;;;20724556;28;20038;-77
2020/12/24 07:39:10;;;;;;;0.20;0.20;;;12.20;71.50;;;;;;20721040;28;20035;-76
2020/12/24 07:49:12;;;;;;;0.35;0.35;;;12.20;71.50;;;;;;20808770;28;20502;-79
2020/12/24 07:59:16;;;;;;;0.13;0.13;;;12.20;71.40;;;;;;20768468;28;20041;-76
2020/12/24 08:09:18;;;;;;;0.20;0.20;;;12.10;71.20;;;;;;20750328;28;20450;-80
2020/12/24 08:19:36;;;;;;;0.10;0.10;;;12.10;71.00;;;;;;20750537;28;20038;-74
2020/12/24 08:29:37;;;;;;;0.15;0.13;;;12.10;70.70;;;;;;20743271;28;20104;-74
2020/12/24 08:39:37;;;;;;;0.10;0.10;;;12.00;70.10;;;;;;20767211;28;20045;-76
2020/12/24 08:49:45;;;;;;;0.10;0.10;;;12.00;69.80;;;;;;20801820;28;20096;-75
2020/12/24 08:59:55;;;;;;;0.57;0.55;;;12.00;69.40;;;;;;20750640;28;20065;-80
2020/12/24 09:20:09;;;;;;;0.20;0.20;;;12.00;69.00;;;;;;20520174;28;20043;-77
2020/12/24 09:30:10;;;;;;;0.20;0.10;;;11.90;68.00;;;;;;20520463;28;20035;-77
2020/12/24 09:40:11;;;;;;;0.10;0.10;;;11.90;67.50;;;;;;20537729;28;20065;-81
2020/12/24 09:50:14;;;;;;;0.13;0.13;;;11.90;67.20;;;;;;20541068;28;20035;-80
2020/12/24 10:00:15;;;;;;;0.10;0.10;;;12.00;67.10;;;;;;20516300;28;20105;-81
2020/12/24 10:10:15;;;;;;;0.10;0.10;;;12.00;66.90;;;;;;20549918;28;20069;-79
2020/12/24 10:20:16;;;;;;;0.10;0.10;;;11.90;66.80;;;;;;20523973;28;20118;-74
2020/12/24 10:30:17;;;;;;;0.10;0.10;;;11.90;66.70;;;;;;20508155;28;20039;-74
2020/12/24 10:40:18;;;;;;;0.47;0.30;;;11.90;66.60;;;;;;20525503;28;20043;-74
2020/12/24 10:50:19;;;;;;;0.15;0.15;;;11.90;66.60;;;;;;20561188;28;20049;-75
2020/12/24 11:00:22;;;;;;;0.65;0.35;;;11.90;66.50;;;;;;20503340;28;20057;-75
2020/12/24 11:10:24;;;;;;;0.40;0.10;;;11.90;66.60;;;;;;20515725;28;20382;-75
2020/12/24 11:20:24;;;;;;;0.20;0.20;;;11.90;66.60;;;;;;20521241;28;20051;-74
2020/12/24 11:30:25;;;;;;;0.20;0.20;;;11.90;66.70;;;;;;20516134;28;20784;-76
2020/12/24 11:40:25;;;;;;;0.22;0.20;;;11.90;66.60;;;;;;20512211;28;20037;-74
2020/12/24 11:50:26;;;;;;;0.10;0.10;;;11.90;66.70;;;;;;20545452;28;20090;-74
2020/12/24 12:00:26;;;;;;;0.30;0.22;;;11.90;66.70;;;;;;20532935;28;20481;-74
2020/12/24 12:10:27;;;;;;;1.38;0.73;;;11.80;66.70;;;;;;20553587;28;20369;-74
2020/12/24 12:20:28;;;;;;;1.02;0.10;;;11.90;66.80;;;;;;20514138;28;20687;-75
2020/12/24 12:30:28;;;;;;;0.17;0.17;;;11.90;67.50;;;;;;20523762;28;20032;-76
2020/12/24 12:40:29;;;;;;;0.52;0.35;;;11.90;66.90;;;;;;20486889;28;20377;-74
2020/12/24 12:50:32;;;;;;;0.10;0.10;;;11.80;67.00;;;;;;20480292;28;20039;-77
2020/12/24 13:00:33;;;;;;;0.30;0.30;;;11.90;67.00;;;;;;20524094;28;20290;-80
2020/12/24 13:10:34;;;;;;;0.75;0.40;;;12.00;67.20;;;;;;20541464;28;20047;-79
2020/12/24 13:20:36;;;;;;;0.30;0.30;;;12.10;67.20;;;;;;20523098;28;20039;-77
2020/12/24 13:30:36;;;;;;;0.10;0.10;;;12.30;66.80;;;;;;20533470;28;20050;-77
2020/12/24 13:40:38;;;;;;;0.57;0.28;;;12.40;66.20;;;;;;20535506;28;20035;-78
2020/12/24 13:50:42;;;;;;;0.25;0.22;;;12.60;65.60;;;;;;20520831;28;20298;-79
2020/12/24 14:00:44;;;;;;;0.65;0.15;;;12.60;65.10;;;;;;20530633;28;20043;-76
2020/12/24 14:10:46;;;;;;;0.65;0.30;;;12.50;65.00;;;;;;20529834;28;20138;-79
2020/12/24 14:20:48;;;;;;;0.25;0.20;;;12.40;65.00;;;;;;20482781;28;20126;-79
2020/12/24 14:30:48;;;;;;;0.30;0.30;;;12.20;65.30;;;;;;20525839;28;20066;-80
2020/12/24 14:40:50;;;;;;;0.30;0.30;;;12.10;65.60;;;;;;20517446;28;20039;-81
2020/12/24 14:50:51;;;;;;;0.20;0.20;;;12.10;65.90;;;;;;20553581;28;20035;-81
2020/12/24 15:00:53;;;;;;;0.22;0.13;;;12.00;66.20;;;;;;20543678;28;20553;-82
2020/12/24 15:10:57;;;;;;;0.45;0.20;;;12.00;66.50;;;;;;20512481;28;20047;-82
2020/12/24 15:21:07;;;;;;;0.90;0.45;;;12.00;66.70;;;;;;20494601;28;20086;-82
2020/12/24 15:31:07;;;;;;;6.75;0.50;;;12.00;67.00;;;;;;20567971;28;20049;-82
2020/12/24 15:41:15;;;;;;;0.50;0.13;;;11.90;67.00;;;;;;20528201;28;20085;-84
2020/12/24 15:51:21;;;;;;;1.30;0.57;;;12.00;67.20;;;;;;20537838;28;20637;-80
2020/12/24 16:01:23;;;;;;;0.22;0.20;;;12.00;67.20;;;;;;20523858;28;20031;-81
2020/12/24 16:11:24;;;;;;;0.38;0.38;;;12.00;67.30;;;;;;20510244;28;20048;-83
2020/12/24 16:21:26;;;;;;;0.70;0.30;;;12.00;67.50;;;;;;20490456;28;20105;-81
2020/12/24 16:31:35;;;;;;;2.58;0.88;;;12.10;67.60;;;;;;20540579;28;20047;-78
2020/12/24 16:41:35;;;;;;;1.35;0.80;;;12.30;67.50;;;;;;20529032;28;20043;-80
2020/12/24 16:51:38;;;;;;;0.35;0.22;;;12.30;66.60;;;;;;20525333;28;20050;-75
2020/12/24 17:01:38;;;;;;;0.73;0.65;;;12.40;66.40;;;;;;20537083;28;20442;-79
2020/12/24 17:11:43;;;;;;;0.38;0.38;;;12.30;66.20;;;;;;20522014;28;20040;-77
2020/12/24 17:21:45;;;;;;;2.35;1.05;;;12.20;66.80;;;;;;20527521;28;20042;-76
2020/12/24 17:31:48;;;;;;;2.67;0.80;;;12.10;66.30;;;;;;20517847;28;20046;-84
2020/12/24 17:41:49;;;;;;;1.05;0.43;;;12.00;66.50;;;;;;20517636;28;20027;-77
2020/12/24 17:51:52;;;;;;;0.80;0.40;;;12.00;66.70;;;;;;20555181;28;20045;-85
2020/12/24 18:01:53;;;;;;;1.00;0.80;;;11.90;66.90;;;;;;20552443;28;20322;-85
2020/12/24 18:11:54;;;;;;;1.20;0.77;;;11.90;67.20;;;;;;20529023;28;20114;-76
2020/12/24 18:21:59;;;;;;;1.25;0.70;;;11.90;67.40;;;;;;20522590;28;20112;-76
2020/12/24 18:32:01;;;;;;;1.33;0.43;;;11.90;67.40;;;;;;20525349;28;20290;-78
2020/12/24 18:42:05;;;;;;;1.02;0.70;;;11.90;67.50;;;;;;20525365;28;20063;-76
2020/12/24 18:52:05;;;;;;;0.35;0.20;;;11.90;67.50;;;;;;20501905;28;20039;-76
2020/12/24 19:02:08;;;;;;;0.80;0.63;;;11.90;67.50;;;;;;20515154;28;20046;-78
2020/12/24 19:12:09;;;;;;;1.48;0.50;;;11.90;67.50;;;;;;20522810;28;20046;-82
2020/12/24 19:22:10;;;;;;;2.67;0.90;;;11.80;67.50;;;;;;20549586;28;20039;-82
2020/12/24 19:32:11;;;;;;;0.77;0.57;;;11.80;67.50;;;;;;20542856;28;20070;-82
2020/12/24 19:42:12;;;;;;;2.00;1.25;;;11.90;67.60;;;;;;20519506;28;20039;-84
2020/12/24 19:52:15;;;;;;;0.65;0.55;;;11.80;67.50;;;;;;20523626;28;20047;-84
2020/12/24 20:02:15;;;;;;;0.47;0.47;;;11.80;67.50;;;;;;20506838;28;20046;-84
2020/12/24 20:12:17;;;;;;;0.82;0.68;;;11.80;67.50;;;;;;20503488;28;20042;-84
2020/12/24 20:22:18;;;;;;;1.80;0.73;;;11.80;67.50;;;;;;20498192;28;20382;-84
2020/12/24 20:32:19;;;;;;;0.73;0.63;;;11.80;67.50;;;;;;20568461;28;20098;-83
2020/12/24 20:42:20;;;;;;;2.40;1.17;;;11.80;67.60;;;;;;20542959;28;20034;-83
2020/12/24 20:52:21;;;;;;;0.73;0.55;;;11.80;67.50;;;;;;20549240;28;20478;-85
2020/12/24 21:02:28;;;;;;;0.73;0.60;;;11.70;67.40;;;;;;20528981;28;20496;-86
2020/12/24 21:12:30;;;;;;;5.97;0.80;;;11.80;67.50;;;;;;20540778;28;20050;-85
2020/12/24 21:22:31;;;;;;;2.67;0.75;;;11.80;67.70;;;;;;20535284;28;20501;-79
2020/12/24 21:32:31;;;;;;;1.23;0.60;;;11.80;67.40;;;;;;20579873;28;20035;-83
2020/12/24 21:42:33;;;;;;;0.68;0.45;;;11.80;67.40;;;;;;20532888;28;20283;-85
2020/12/24 21:52:36;;;;;;;0.75;0.60;;;11.80;67.40;;;;;;20516071;28;20044;-87
2020/12/24 22:02:38;;;;;;;0.80;0.55;;;11.70;67.30;;;;;;20533750;28;20103;-84
2020/12/24 22:12:43;;;;;;;0.32;0.32;;;11.70;67.20;;;;;;20528356;28;20042;-86
2020/12/24 22:22:46;;;;;;;0.50;0.50;;;11.70;67.20;;;;;;20537113;28;20047;-89
2020/12/24 22:32:48;;;;;;;2.13;0.70;;;11.70;67.10;;;;;;20529625;28;20114;-86
2020/12/24 22:42:55;;;;;;;0.80;0.43;;;11.70;67.10;;;;;;20552169;28;20054;-83
2020/12/24 22:52:56;;;;;;;0.65;0.50;;;11.70;67.00;;;;;;20562194;28;20086;-83
2020/12/24 23:03:07;;;;;;;0.60;0.45;;;11.70;67.00;;;;;;20561693;28;20082;-84
2020/12/24 23:13:09;;;;;;;0.98;0.52;;;11.70;67.00;;;;;;20531796;28;20047;-83
2020/12/24 23:23:12;;;;;;;0.63;0.43;;;11.70;66.90;;;;;;20524005;28;20059;-85
2020/12/24 23:33:15;;;;;;;0.80;0.40;;;11.70;67.50;;;;;;20550376;28;20045;-85
2020/12/24 23:43:20;;;;;;;0.75;0.43;;;11.60;66.70;;;;;;20521000;28;20041;-84
2020/12/24 23:53:23;;;;;;;0.55;0.30;;;11.60;66.60;;;;;;20569247;28;20106;-85
